sensor_id;sensor_type;location;lat;lon;timestamp;pressure;altitude;pressure_sealevel;temperature;humidity
42671;BME280;28283;55.426;37.756;2024-03-23T00:55:52;98491.00;;;2.28;70.15
42671;BME280;28283;55.426;37.756;2024-03-23T01:00:52;98486.34;;;2.31;69.91
42671;BME280;28283;55.426;37.756;2024-03-23T01:05:52;98486.66;;;2.27;69.84
42671;BME280;28283;55.426;37.756;2024-03-23T01:10:57;98471.41;;;2.29;70.57
42671;BME280;28283;55.426;37.756;2024-03-23T01:15:58;98451.88;;;2.31;70.74
42671;BME280;28283;55.426;37.756;2024-03-23T01:20:59;98458.34;;;2.28;70.48
42671;BME280;28283;55.426;37.756;2024-03-23T01:25:59;98436.94;;;2.29;70.53
42671;BME280;28283;55.426;37.756;2024-03-23T01:31:00;98436.59;;;2.33;70.49
42671;BME280;28283;55.426;37.756;2024-03-23T01:36:00;98426.66;;;2.35;71.36
42671;BME280;28283;55.426;37.756;2024-03-23T01:41:01;98415.88;;;2.36;71.64
42671;BME280;28283;55.426;37.756;2024-03-23T01:46:01;98408.56;;;2.38;71.50
42671;BME280;28283;55.426;37.756;2024-03-23T01:51:01;98410.09;;;2.33;71.78
42671;BME280;28283;55.426;37.756;2024-03-23T01:56:02;98400.78;;;2.37;71.91
42671;BME280;28283;55.426;37.756;2024-03-23T02:01:03;98398.31;;;2.35;72.08
42671;BME280;28283;55.426;37.756;2024-03-23T02:06:04;98392.31;;;2.41;72.23
42671;BME280;28283;55.426;37.756;2024-03-23T02:11:07;98388.84;;;2.41;72.22
42671;BME280;28283;55.426;37.756;2024-03-23T02:16:07;98383.88;;;2.38;72.14
42671;BME280;28283;55.426;37.756;2024-03-23T02:21:08;98381.06;;;2.39;72.47
42671;BME280;28283;55.426;37.756;2024-03-23T02:26:09;98374.88;;;2.47;72.93
42671;BME280;28283;55.426;37.756;2024-03-23T02:31:10;98359.16;;;2.45;73.31
42671;BME280;28283;55.426;37.756;2024-03-23T02:36:10;98350.38;;;2.45;73.56
42671;BME280;28283;55.426;37.756;2024-03-23T02:41:11;98337.28;;;2.43;73.72
42671;BME280;28283;55.426;37.756;2024-03-23T02:46:12;98340.81;;;2.36;73.89
42671;BME280;28283;55.426;37.756;2024-03-23T02:51:12;98329.50;;;2.42;74.13
42671;BME280;28283;55.426;37.756;2024-03-23T02:56:13;98315.59;;;2.40;74.52
42671;BME280;28283;55.426;37.756;2024-03-23T03:01:16;98318.06;;;2.41;74.65
42671;BME280;28283;55.426;37.756;2024-03-23T03:06:23;98315.72;;;2.46;75.02
42671;BME280;28283;55.426;37.756;2024-03-23T03:11:24;98293.53;;;2.39;74.50
42671;BME280;28283;55.426;37.756;2024-03-23T03:16:24;98284.56;;;2.40;74.91
42671;BME280;28283;55.426;37.756;2024-03-23T03:21:25;98272.09;;;2.49;74.84
42671;BME280;28283;55.426;37.756;2024-03-23T03:26:25;98255.59;;;2.62;75.64
42671;BME280;28283;55.426;37.756;2024-03-23T03:31:26;98243.03;;;2.56;75.51
42671;BME280;28283;55.426;37.756;2024-03-23T03:36:26;98252.94;;;2.62;76.29
42671;BME280;28283;55.426;37.756;2024-03-23T03:41:27;98236.84;;;2.63;76.03
42671;BME280;28283;55.426;37.756;2024-03-23T03:46:27;98233.03;;;2.66;76.07
42671;BME280;28283;55.426;37.756;2024-03-23T03:51:28;98221.84;;;2.71;76.53
42671;BME280;28283;55.426;37.756;2024-03-23T03:56:28;98209.19;;;2.81;77.02
42671;BME280;28283;55.426;37.756;2024-03-23T04:01:29;98199.19;;;2.83;76.68
42671;BME280;28283;55.426;37.756;2024-03-23T04:06:29;98207.09;;;2.91;77.50
42671;BME280;28283;55.426;37.756;2024-03-23T04:11:30;98200.69;;;2.85;77.02
42671;BME280;28283;55.426;37.756;2024-03-23T04:16:33;98221.47;;;2.97;77.39
42671;BME280;28283;55.426;37.756;2024-03-23T04:21:35;98197.13;;;2.93;77.29
42671;BME280;28283;55.426;37.756;2024-03-23T04:26:45;98187.53;;;3.07;77.26
42671;BME280;28283;55.426;37.756;2024-03-23T04:31:46;98170.59;;;3.08;77.58
42671;BME280;28283;55.426;37.756;2024-03-23T04:36:47;98174.72;;;3.11;77.87
42671;BME280;28283;55.426;37.756;2024-03-23T04:41:47;98171.03;;;3.12;77.37
42671;BME280;28283;55.426;37.756;2024-03-23T04:46:48;98145.06;;;3.22;77.48
42671;BME280;28283;55.426;37.756;2024-03-23T04:51:48;98153.03;;;3.22;77.55
42671;BME280;28283;55.426;37.756;2024-03-23T04:56:49;98145.16;;;3.29;77.78
42671;BME280;28283;55.426;37.756;2024-03-23T05:01:49;98138.34;;;3.41;77.99
42671;BME280;28283;55.426;37.756;2024-03-23T05:06:50;98127.72;;;3.41;78.48
42671;BME280;28283;55.426;37.756;2024-03-23T05:11:50;98122.16;;;3.36;78.25
42671;BME280;28283;55.426;37.756;2024-03-23T05:16:51;98126.19;;;3.47;78.56
42671;BME280;28283;55.426;37.756;2024-03-23T05:21:51;98121.88;;;3.46;78.82
42671;BME280;28283;55.426;37.756;2024-03-23T05:26:53;98118.56;;;3.43;78.81
42671;BME280;28283;55.426;37.756;2024-03-23T05:31:53;98115.28;;;3.41;79.21
42671;BME280;28283;55.426;37.756;2024-03-23T05:36:56;98111.22;;;3.46;79.12
42671;BME280;28283;55.426;37.756;2024-03-23T05:41:57;98101.06;;;3.49;79.54
42671;BME280;28283;55.426;37.756;2024-03-23T05:46:57;98098.94;;;3.44;79.30
42671;BME280;28283;55.426;37.756;2024-03-23T05:51:58;98075.38;;;3.56;80.37
42671;BME280;28283;55.426;37.756;2024-03-23T05:56:58;98098.84;;;3.53;80.13
42671;BME280;28283;55.426;37.756;2024-03-23T06:01:59;98088.22;;;3.53;79.87
42671;BME280;28283;55.426;37.756;2024-03-23T06:07:00;98063.88;;;3.49;81.05
42671;BME280;28283;55.426;37.756;2024-03-23T06:12:00;98075.31;;;3.50;81.23
42671;BME280;28283;55.426;37.756;2024-03-23T06:17:00;98072.09;;;3.54;81.43
42671;BME280;28283;55.426;37.756;2024-03-23T06:22:01;98066.69;;;3.62;81.83
42671;BME280;28283;55.426;37.756;2024-03-23T06:27:02;98064.94;;;3.55;81.72
42671;BME280;28283;55.426;37.756;2024-03-23T06:32:03;98067.16;;;3.51;82.33
42671;BME280;28283;55.426;37.756;2024-03-23T06:37:04;98057.88;;;3.62;82.28
42671;BME280;28283;55.426;37.756;2024-03-23T06:42:04;98048.72;;;3.65;82.57
42671;BME280;28283;55.426;37.756;2024-03-23T06:47:05;98055.47;;;3.67;82.71
42671;BME280;28283;55.426;37.756;2024-03-23T06:52:06;98049.97;;;3.69;82.87
42671;BME280;28283;55.426;37.756;2024-03-23T06:57:06;98042.19;;;3.67;83.56
42671;BME280;28283;55.426;37.756;2024-03-23T07:02:07;98025.72;;;3.78;83.58
42671;BME280;28283;55.426;37.756;2024-03-23T07:07:14;98032.72;;;3.79;83.80
42671;BME280;28283;55.426;37.756;2024-03-23T07:12:14;98021.81;;;3.74;83.93
42671;BME280;28283;55.426;37.756;2024-03-23T07:17:15;98015.53;;;3.82;84.24
42671;BME280;28283;55.426;37.756;2024-03-23T07:22:19;98006.56;;;3.83;84.03
42671;BME280;28283;55.426;37.756;2024-03-23T07:27:19;97991.31;;;3.92;84.22
42671;BME280;28283;55.426;37.756;2024-03-23T07:32:20;98006.00;;;3.88;84.22
42671;BME280;28283;55.426;37.756;2024-03-23T07:37:20;98002.94;;;3.91;84.50
42671;BME280;28283;55.426;37.756;2024-03-23T07:42:21;97992.50;;;3.89;84.68
42671;BME280;28283;55.426;37.756;2024-03-23T07:47:22;97988.03;;;3.90;84.85
42671;BME280;28283;55.426;37.756;2024-03-23T07:52:22;97992.38;;;3.97;84.55
42671;BME280;28283;55.426;37.756;2024-03-23T07:57:22;97972.16;;;4.03;85.16
42671;BME280;28283;55.426;37.756;2024-03-23T08:02:23;97982.00;;;4.03;84.92
42671;BME280;28283;55.426;37.756;2024-03-23T08:07:23;97974.00;;;4.03;84.93
42671;BME280;28283;55.426;37.756;2024-03-23T08:12:25;97985.03;;;3.99;85.11
42671;BME280;28283;55.426;37.756;2024-03-23T08:17:26;97975.69;;;4.10;84.79
42671;BME280;28283;55.426;37.756;2024-03-23T08:22:26;97980.03;;;4.18;85.23
42671;BME280;28283;55.426;37.756;2024-03-23T08:27:27;97961.22;;;4.19;85.27
42671;BME280;28283;55.426;37.756;2024-03-23T08:32:27;97966.97;;;4.16;85.29
42671;BME280;28283;55.426;37.756;2024-03-23T08:37:28;97956.75;;;4.20;85.42
42671;BME280;28283;55.426;37.756;2024-03-23T08:42:29;97950.16;;;4.16;85.51
42671;BME280;28283;55.426;37.756;2024-03-23T08:47:30;97950.47;;;4.28;85.44
42671;BME280;28283;55.426;37.756;2024-03-23T08:52:30;97941.97;;;4.46;85.13
42671;BME280;28283;55.426;37.756;2024-03-23T08:57:31;97927.19;;;4.43;85.15
42671;BME280;28283;55.426;37.756;2024-03-23T09:02:31;97939.22;;;4.32;85.50
42671;BME280;28283;55.426;37.756;2024-03-23T09:07:32;97932.38;;;4.51;85.83
42671;BME280;28283;55.426;37.756;2024-03-23T09:12:32;97934.00;;;4.46;85.45
42671;BME280;28283;55.426;37.756;2024-03-23T09:17:32;97914.97;;;4.49;86.01
42671;BME280;28283;55.426;37.756;2024-03-23T09:22:33;97920.50;;;4.54;85.73
42671;BME280;28283;55.426;37.756;2024-03-23T09:27:34;97918.13;;;4.66;85.90
42671;BME280;28283;55.426;37.756;2024-03-23T09:32:34;97913.03;;;4.71;85.52
42671;BME280;28283;55.426;37.756;2024-03-23T09:37:34;97907.06;;;4.69;85.75
42671;BME280;28283;55.426;37.756;2024-03-23T09:42:35;97895.44;;;4.76;86.08
42671;BME280;28283;55.426;37.756;2024-03-23T09:47:35;97906.09;;;4.83;85.92
42671;BME280;28283;55.426;37.756;2024-03-23T09:52:36;97893.22;;;4.87;85.79
42671;BME280;28283;55.426;37.756;2024-03-23T09:57:36;97890.56;;;4.87;85.48
42671;BME280;28283;55.426;37.756;2024-03-23T10:02:37;97887.50;;;4.96;85.84
42671;BME280;28283;55.426;37.756;2024-03-23T10:07:40;97895.09;;;5.00;85.82
42671;BME280;28283;55.426;37.756;2024-03-23T10:12:43;97873.00;;;5.19;85.29
42671;BME280;28283;55.426;37.756;2024-03-23T10:17:45;97886.28;;;5.06;85.79
42671;BME280;28283;55.426;37.756;2024-03-23T10:22:45;97870.94;;;5.14;85.85
42671;BME280;28283;55.426;37.756;2024-03-23T10:27:55;97862.75;;;5.16;85.45
42671;BME280;28283;55.426;37.756;2024-03-23T10:33:08;97875.66;;;5.12;85.57
42671;BME280;28283;55.426;37.756;2024-03-23T10:38:08;97868.50;;;5.20;85.62
42671;BME280;28283;55.426;37.756;2024-03-23T10:43:09;97861.09;;;5.08;85.52
42671;BME280;28283;55.426;37.756;2024-03-23T10:48:09;97852.94;;;5.23;85.82
42671;BME280;28283;55.426;37.756;2024-03-23T10:53:13;97850.69;;;5.27;85.81
42671;BME280;28283;55.426;37.756;2024-03-23T10:58:14;97852.75;;;5.31;85.47
42671;BME280;28283;55.426;37.756;2024-03-23T11:08:33;97851.09;;;5.30;85.87
42671;BME280;28283;55.426;37.756;2024-03-23T11:13:34;97845.97;;;5.29;85.43
42671;BME280;28283;55.426;37.756;2024-03-23T11:18:34;97838.78;;;5.23;85.18
42671;BME280;28283;55.426;37.756;2024-03-23T11:23:34;97819.53;;;5.41;85.52
42671;BME280;28283;55.426;37.756;2024-03-23T11:28:35;97833.66;;;5.41;85.26
42671;BME280;28283;55.426;37.756;2024-03-23T11:33:36;97830.16;;;5.27;85.36
42671;BME280;28283;55.426;37.756;2024-03-23T11:38:36;97823.44;;;5.31;85.64
42671;BME280;28283;55.426;37.756;2024-03-23T11:43:37;97815.63;;;5.16;85.70
42671;BME280;28283;55.426;37.756;2024-03-23T11:48:37;97826.06;;;5.18;86.24
42671;BME280;28283;55.426;37.756;2024-03-23T11:53:38;97821.16;;;5.15;86.31
42671;BME280;28283;55.426;37.756;2024-03-23T11:58:40;97801.50;;;5.43;85.82
42671;BME280;28283;55.426;37.756;2024-03-23T12:03:43;97811.13;;;5.17;86.02
42671;BME280;28283;55.426;37.756;2024-03-23T12:08:44;97812.53;;;5.13;85.78
42671;BME280;28283;55.426;37.756;2024-03-23T12:13:45;97809.88;;;5.13;85.83
42671;BME280;28283;55.426;37.756;2024-03-23T12:18:49;97801.06;;;5.32;86.05
42671;BME280;28283;55.426;37.756;2024-03-23T12:23:51;97803.13;;;5.30;85.75
42671;BME280;28283;55.426;37.756;2024-03-23T12:28:52;97802.50;;;5.15;85.63
42671;BME280;28283;55.426;37.756;2024-03-23T12:33:52;97791.66;;;5.10;86.32
42671;BME280;28283;55.426;37.756;2024-03-23T12:38:56;97803.94;;;5.18;86.26
42671;BME280;28283;55.426;37.756;2024-03-23T12:44:00;97809.69;;;5.21;86.08
42671;BME280;28283;55.426;37.756;2024-03-23T12:49:01;97803.13;;;5.10;86.50
42671;BME280;28283;55.426;37.756;2024-03-23T12:54:01;97796.16;;;5.09;86.69
42671;BME280;28283;55.426;37.756;2024-03-23T12:59:02;97797.19;;;5.02;86.88
42671;BME280;28283;55.426;37.756;2024-03-23T13:04:02;97798.19;;;5.01;87.53
42671;BME280;28283;55.426;37.756;2024-03-23T13:09:03;97794.91;;;4.98;87.95
42671;BME280;28283;55.426;37.756;2024-03-23T13:14:04;97787.94;;;5.04;87.95
42671;BME280;28283;55.426;37.756;2024-03-23T13:19:05;97788.34;;;5.08;87.89
42671;BME280;28283;55.426;37.756;2024-03-23T13:24:06;97791.44;;;4.98;88.47
42671;BME280;28283;55.426;37.756;2024-03-23T13:29:06;97788.16;;;4.96;88.86
42671;BME280;28283;55.426;37.756;2024-03-23T13:34:07;97794.28;;;4.90;88.97
42671;BME280;28283;55.426;37.756;2024-03-23T13:39:07;97777.28;;;4.84;89.42
42671;BME280;28283;55.426;37.756;2024-03-23T13:44:11;97772.38;;;4.94;89.80
42671;BME280;28283;55.426;37.756;2024-03-23T13:49:45;97771.56;;;5.07;89.48
42671;BME280;28283;55.426;37.756;2024-03-23T13:54:40;97783.63;;;4.90;89.62
42671;BME280;28283;55.426;37.756;2024-03-23T13:59:46;97781.38;;;4.93;90.22
42671;BME280;28283;55.426;37.756;2024-03-23T14:04:47;97775.88;;;4.88;90.20
42671;BME280;28283;55.426;37.756;2024-03-23T14:09:48;97778.94;;;4.85;90.45
42671;BME280;28283;55.426;37.756;2024-03-23T14:14:48;97799.41;;;4.91;90.67
42671;BME280;28283;55.426;37.756;2024-03-23T14:19:52;97777.94;;;5.00;90.48
42671;BME280;28283;55.426;37.756;2024-03-23T14:24:56;97769.53;;;4.96;90.42
42671;BME280;28283;55.426;37.756;2024-03-23T14:29:56;97776.06;;;4.93;90.41
42671;BME280;28283;55.426;37.756;2024-03-23T14:34:57;97777.72;;;4.94;90.73
42671;BME280;28283;55.426;37.756;2024-03-23T14:39:57;97773.22;;;5.02;90.50
42671;BME280;28283;55.426;37.756;2024-03-23T14:44:58;97757.63;;;4.98;90.89
42671;BME280;28283;55.426;37.756;2024-03-23T14:49:58;97778.94;;;4.92;90.34
42671;BME280;28283;55.426;37.756;2024-03-23T14:54:59;97769.91;;;4.93;90.77
42671;BME280;28283;55.426;37.756;2024-03-23T14:59:59;97769.31;;;5.04;91.01
42671;BME280;28283;55.426;37.756;2024-03-23T15:05:00;97777.28;;;4.91;91.09
42671;BME280;28283;55.426;37.756;2024-03-23T15:10:01;97781.63;;;4.92;91.07
42671;BME280;28283;55.426;37.756;2024-03-23T15:15:01;97786.72;;;4.93;91.14
42671;BME280;28283;55.426;37.756;2024-03-23T15:20:02;97790.81;;;4.96;90.98
42671;BME280;28283;55.426;37.756;2024-03-23T15:25:03;97775.66;;;4.96;91.08
42671;BME280;28283;55.426;37.756;2024-03-23T15:30:03;97782.03;;;4.95;91.49
42671;BME280;28283;55.426;37.756;2024-03-23T15:35:05;97777.31;;;4.97;91.01
42671;BME280;28283;55.426;37.756;2024-03-23T15:40:07;97784.25;;;4.98;91.28
42671;BME280;28283;55.426;37.756;2024-03-23T15:45:10;97777.72;;;4.94;91.33
42671;BME280;28283;55.426;37.756;2024-03-23T15:50:11;97787.13;;;4.97;91.59
42671;BME280;28283;55.426;37.756;2024-03-23T15:55:12;97798.81;;;4.96;91.36
42671;BME280;28283;55.426;37.756;2024-03-23T16:00:12;97791.22;;;4.86;91.30
42671;BME280;28283;55.426;37.756;2024-03-23T16:05:13;97793.88;;;4.93;91.43
42671;BME280;28283;55.426;37.756;2024-03-23T16:10:14;97801.44;;;4.83;91.80
42671;BME280;28283;55.426;37.756;2024-03-23T16:15:15;97810.06;;;4.85;91.67
42671;BME280;28283;55.426;37.756;2024-03-23T16:20:15;97820.28;;;4.88;91.69
42671;BME280;28283;55.426;37.756;2024-03-23T16:25:16;97818.66;;;4.80;91.98
42671;BME280;28283;55.426;37.756;2024-03-23T16:30:16;97826.25;;;4.83;91.99
42671;BME280;28283;55.426;37.756;2024-03-23T16:35:17;97826.66;;;4.87;91.98
42671;BME280;28283;55.426;37.756;2024-03-23T16:40:17;97819.69;;;4.92;92.27
42671;BME280;28283;55.426;37.756;2024-03-23T16:45:18;97826.44;;;4.82;92.08
42671;BME280;28283;55.426;37.756;2024-03-23T16:50:18;97828.47;;;4.86;92.27
42671;BME280;28283;55.426;37.756;2024-03-23T16:55:19;97830.13;;;4.87;92.26
42671;BME280;28283;55.426;37.756;2024-03-23T17:00:19;97838.94;;;4.88;92.57
42671;BME280;28283;55.426;37.756;2024-03-23T17:05:20;97850.22;;;4.96;92.61
42671;BME280;28283;55.426;37.756;2024-03-23T17:10:22;97861.91;;;5.02;92.23
42671;BME280;28283;55.426;37.756;2024-03-23T17:15:23;97842.63;;;4.93;92.59
42671;BME280;28283;55.426;37.756;2024-03-23T17:20:24;97852.47;;;4.93;92.60
42671;BME280;28283;55.426;37.756;2024-03-23T17:25:25;97864.75;;;4.94;92.80
42671;BME280;28283;55.426;37.756;2024-03-23T17:30:25;97865.81;;;5.00;92.87
42671;BME280;28283;55.426;37.756;2024-03-23T17:35:26;97853.91;;;4.95;93.12
42671;BME280;28283;55.426;37.756;2024-03-23T17:40:27;97856.34;;;4.90;93.06
42671;BME280;28283;55.426;37.756;2024-03-23T17:45:28;97860.44;;;4.93;92.81
42671;BME280;28283;55.426;37.756;2024-03-23T17:50:28;97855.13;;;4.93;92.72
42671;BME280;28283;55.426;37.756;2024-03-23T17:55:29;97855.09;;;4.86;92.77
42671;BME280;28283;55.426;37.756;2024-03-23T18:00:31;97868.41;;;4.86;93.37
42671;BME280;28283;55.426;37.756;2024-03-23T18:05:33;97866.16;;;4.83;92.92
42671;BME280;28283;55.426;37.756;2024-03-23T18:10:34;97758.47;;;4.11;92.93
42671;BME280;28283;55.426;37.756;2024-03-23T18:15:34;97874.34;;;4.82;92.85
42671;BME280;28283;55.426;37.756;2024-03-23T18:20:34;97882.94;;;4.77;92.67
42671;BME280;28283;55.426;37.756;2024-03-23T18:25:35;97813.38;;;4.32;92.66
42671;BME280;28283;55.426;37.756;2024-03-23T18:30:36;97791.16;;;4.05;92.70
42671;BME280;28283;55.426;37.756;2024-03-23T18:35:37;97893.16;;;4.67;93.05
42671;BME280;28283;55.426;37.756;2024-03-23T18:40:37;97905.81;;;4.65;93.00
42671;BME280;28283;55.426;37.756;2024-03-23T18:45:45;97897.19;;;4.56;92.99
42671;BME280;28283;55.426;37.756;2024-03-23T18:50:45;97913.94;;;4.50;93.14
42671;BME280;28283;55.426;37.756;2024-03-23T18:55:52;97914.75;;;4.50;93.23
42671;BME280;28283;55.426;37.756;2024-03-23T19:01:00;97922.91;;;4.42;93.34
42671;BME280;28283;55.426;37.756;2024-03-23T19:06:01;97911.19;;;4.30;93.42
42671;BME280;28283;55.426;37.756;2024-03-23T19:11:02;97923.84;;;4.28;93.36
42671;BME280;28283;55.426;37.756;2024-03-23T19:16:03;97855.84;;;3.77;93.26
42671;BME280;28283;55.426;37.756;2024-03-23T19:21:07;97943.16;;;4.36;93.47
42671;BME280;28283;55.426;37.756;2024-03-23T19:26:08;97952.25;;;4.55;92.50
42671;BME280;28283;55.426;37.756;2024-03-23T19:31:08;97962.41;;;4.38;92.77
42671;BME280;28283;55.426;37.756;2024-03-23T19:36:10;97957.66;;;4.34;92.99
42671;BME280;28283;55.426;37.756;2024-03-23T19:41:12;97968.09;;;4.35;93.40
42671;BME280;28283;55.426;37.756;2024-03-23T19:46:12;97978.97;;;4.40;93.66
42671;BME280;28283;55.426;37.756;2024-03-23T19:51:13;97992.16;;;4.55;93.33
42671;BME280;28283;55.426;37.756;2024-03-23T19:56:13;97978.00;;;4.48;92.67
42671;BME280;28283;55.426;37.756;2024-03-23T20:01:17;97980.19;;;4.38;93.04
42671;BME280;28283;55.426;37.756;2024-03-23T20:06:21;97979.78;;;4.41;93.56
42671;BME280;28283;55.426;37.756;2024-03-23T20:11:25;97982.75;;;4.53;93.84
42671;BME280;28283;55.426;37.756;2024-03-23T20:16:25;97980.16;;;4.66;93.13
42671;BME280;28283;55.426;37.756;2024-03-23T20:21:26;97990.91;;;4.51;93.62
42671;BME280;28283;55.426;37.756;2024-03-23T20:26:26;97975.75;;;4.45;93.80
42671;BME280;28283;55.426;37.756;2024-03-23T20:31:27;97985.78;;;4.50;93.72
42671;BME280;28283;55.426;37.756;2024-03-23T20:36:28;97976.19;;;4.49;93.93
42671;BME280;28283;55.426;37.756;2024-03-23T20:41:28;97978.66;;;4.57;94.05
42671;BME280;28283;55.426;37.756;2024-03-23T20:46:29;97982.56;;;4.61;94.05
42671;BME280;28283;55.426;37.756;2024-03-23T20:51:29;97987.88;;;4.61;93.76
42671;BME280;28283;55.426;37.756;2024-03-23T20:56:29;97982.47;;;4.76;93.45
42671;BME280;28283;55.426;37.756;2024-03-23T21:01:30;97992.53;;;4.87;93.28
42671;BME280;28283;55.426;37.756;2024-03-23T21:06:33;97991.09;;;4.85;93.24
42671;BME280;28283;55.426;37.756;2024-03-23T21:11:33;97976.75;;;4.86;92.93
42671;BME280;28283;55.426;37.756;2024-03-23T21:16:34;97990.78;;;4.66;93.35
42671;BME280;28283;55.426;37.756;2024-03-23T21:21:34;97990.06;;;4.86;92.97
42671;BME280;28283;55.426;37.756;2024-03-23T21:26:35;97984.59;;;5.01;92.76
42671;BME280;28283;55.426;37.756;2024-03-23T21:31:36;97990.06;;;4.86;93.39
42671;BME280;28283;55.426;37.756;2024-03-23T21:36:37;97990.84;;;4.73;93.39
42671;BME280;28283;55.426;37.756;2024-03-23T21:41:38;98005.31;;;4.64;94.41
42671;BME280;28283;55.426;37.756;2024-03-23T21:46:38;98000.81;;;4.64;94.07
42671;BME280;28283;55.426;37.756;2024-03-23T21:51:39;98018.16;;;4.88;94.17
42671;BME280;28283;55.426;37.756;2024-03-23T21:56:39;98024.59;;;5.07;92.59
42671;BME280;28283;55.426;37.756;2024-03-23T22:01:40;98032.00;;;4.70;92.83
42671;BME280;28283;55.426;37.756;2024-03-23T22:06:41;98026.00;;;4.68;93.99
42671;BME280;28283;55.426;37.756;2024-03-23T22:11:41;98014.03;;;4.86;93.87
42671;BME280;28283;55.426;37.756;2024-03-23T22:16:42;98012.44;;;4.56;94.04
42671;BME280;28283;55.426;37.756;2024-03-23T22:21:42;98006.31;;;4.63;94.53
42671;BME280;28283;55.426;37.756;2024-03-23T22:26:43;98006.75;;;4.59;94.72
42671;BME280;28283;55.426;37.756;2024-03-23T22:31:44;98010.03;;;4.62;94.99
42671;BME280;28283;55.426;37.756;2024-03-23T22:36:44;98007.38;;;4.68;94.79
42671;BME280;28283;55.426;37.756;2024-03-23T22:41:45;98017.50;;;4.86;93.76
42671;BME280;28283;55.426;37.756;2024-03-23T22:46:45;98014.59;;;4.74;93.55
42671;BME280;28283;55.426;37.756;2024-03-23T22:51:46;98024.53;;;4.94;93.39
42671;BME280;28283;55.426;37.756;2024-03-23T22:56:46;98019.56;;;4.84;93.27
42671;BME280;28283;55.426;37.756;2024-03-23T23:01:47;98019.66;;;5.04;92.18
42671;BME280;28283;55.426;37.756;2024-03-23T23:06:47;98012.63;;;4.90;92.08
42671;BME280;28283;55.426;37.756;2024-03-23T23:11:47;98019.53;;;4.77;92.51
42671;BME280;28283;55.426;37.756;2024-03-23T23:16:48;98023.16;;;4.70;93.11
42671;BME280;28283;55.426;37.756;2024-03-23T23:21:48;98025.13;;;4.89;91.79
42671;BME280;28283;55.426;37.756;2024-03-23T23:26:49;98032.88;;;4.84;91.81
42671;BME280;28283;55.426;37.756;2024-03-23T23:31:50;98020.66;;;4.62;92.93
42671;BME280;28283;55.426;37.756;2024-03-23T23:36:51;98023.53;;;4.60;93.28
42671;BME280;28283;55.426;37.756;2024-03-23T23:41:51;98020.25;;;4.65;92.64
42671;BME280;28283;55.426;37.756;2024-03-23T23:46:52;98010.72;;;4.77;92.38
42671;BME280;28283;55.426;37.756;2024-03-23T23:51:52;98023.41;;;4.75;92.33
42671;BME280;28283;55.426;37.756;2024-03-23T23:56:53;98030.63;;;4.53;92.25
